Sd416 Nippon — SKPF — position and weather

sailwx.info

Track history (hours):
 
Tides and Currents Weather Stations Pressure Air Temp Water Temp Dewpoint Dewpoint Depression Visibility Wind Speed Wind Dir Waves Ship Positions

Sd416 Nippon

Last reported at 2016-Feb-11 14:33 UTC. Time now 2016-Feb-11 15:09 UTC.
Position N 58°56' E 011°10'.

Length 17 m; draft 2.5 m.

Type: Fishing. MMSI: 266163000.

Date/timePositionNaut miles runAvg speedWind from/ knotsBaromVisibWave heightAir tempDewpointWater temp
2016-Feb-11 14:33N 58°56' E 011°10'0 0.0
2016-Feb-11 13:33N 58°56' E 011°10'0 0.0
2016-Feb-11 12:33N 58°56' E 011°10'0 0.0
2016-Feb-11 11:33N 58°56' E 011°10'0 0.0
2016-Feb-11 10:33N 58°56' E 011°10'0 0.0
2016-Feb-11 09:33N 58°56' E 011°10'0 0.0
2016-Feb-11 08:33N 58°56' E 011°10'0 0.0
2016-Feb-11 07:33N 58°56' E 011°10'0 0.0
2016-Feb-11 06:33N 58°56' E 011°10'28 2.0
2016-Feb-10 16:20N 58°47' E 010°20'5 5.9
2016-Feb-10 15:33N 58°46' E 010°11'7 7.0
2016-Feb-10 14:33N 58°43' E 009°58'3 3.0
2016-Feb-10 13:33N 58°43' E 009°53'2 1.5
2016-Feb-10 12:33N 58°42' E 009°55'1 1.5
2016-Feb-10 11:33N 58°43' E 009°57'2 1.7
2016-Feb-10 10:33N 58°45' E 009°58'3 3.3
2016-Feb-10 09:33N 58°45' E 010°05'1 1.3
2016-Feb-10 08:33N 58°44' E 010°07'1 1.5
2016-Feb-10 07:33N 58°43' E 010°09'2 1.6
2016-Feb-10 06:33N 58°43' E 010°12'2 1.4
2016-Feb-10 05:20N 58°42' E 010°15'1 1.3
2016-Feb-10 04:33N 58°41' E 010°15'1 1.1
2016-Feb-10 03:33N 58°40' E 010°13'1 1.2
2016-Feb-10 02:33N 58°39' E 010°12'1 1.2
2016-Feb-10 01:32N 58°38' E 010°11'3 0.9
2016-Feb-09 22:33N 58°36' E 010°07'6 6.5
2016-Feb-09 21:33N 58°42' E 010°03'3 2.6
2016-Feb-09 20:33N 58°45' E 010°03'1 1.0
2016-Feb-09 19:33N 58°44' E 010°04'2 1.5
2016-Feb-09 18:33N 58°44' E 010°06'3 1.4
2016-Feb-09 16:20N 58°42' E 010°12'1 1.6
2016-Feb-09 15:33N 58°41' E 010°14'1 1.1
2016-Feb-09 14:33N 58°40' E 010°14'1 1.1
2016-Feb-09 13:34N 58°39' E 010°12'1 1.4
2016-Feb-09 12:33N 58°38' E 010°12'1 1.3
2016-Feb-09 11:33N 58°37' E 010°11'1 1.3
2016-Feb-09 10:33N 58°36' E 010°10'1 1.0
2016-Feb-09 09:33N 58°35' E 010°12'7 7.0
2016-Feb-09 08:33N 58°40' E 010°23'30 3.7
2016-Feb-09 00:32N 58°56' E 011°10'0 0.0
2016-Feb-08 23:33N 58°56' E 011°10'0 0.0
2016-Feb-08 22:33N 58°56' E 011°10'0 0.0
2016-Feb-08 21:33N 58°56' E 011°10'0 0.0
2016-Feb-08 20:33N 58°56' E 011°10'0 0.0
2016-Feb-08 19:33N 58°56' E 011°10'0 0.0
2016-Feb-08 18:33N 58°56' E 011°10'0 0.0
2016-Feb-08 17:33N 58°56' E 011°10'0 0.0
2016-Feb-08 16:33N 58°56' E 011°10'0 0.0
2016-Feb-08 15:33N 58°56' E 011°10'0 0.0
2016-Feb-08 14:33N 58°56' E 011°10'0 0.0
2016-Feb-08 13:33N 58°56' E 011°10'0 0.0
2016-Feb-08 12:33N 58°56' E 011°10'0 0.0
2016-Feb-08 11:33N 58°56' E 011°10'0 0.0
2016-Feb-08 10:33N 58°56' E 011°10'0 0.0
2016-Feb-08 09:33N 58°56' E 011°10'0 0.0
2016-Feb-08 08:33N 58°56' E 011°10'0 0.0
2016-Feb-08 07:33N 58°56' E 011°10'0 0.0
2016-Feb-08 06:33N 58°56' E 011°10'0 0.0
2016-Feb-08 05:33N 58°56' E 011°10'0 0.0
2016-Feb-08 04:33N 58°56' E 011°10'0 0.0
2016-Feb-08 03:33N 58°56' E 011°10'0 0.0
2016-Feb-08 02:33N 58°56' E 011°10'0 0.0
2016-Feb-08 01:33N 58°56' E 011°10'0 0.0
2016-Feb-08 00:33N 58°56' E 011°10'0 0.0
2016-Feb-07 23:33N 58°56' E 011°10'0 0.0
2016-Feb-07 22:33N 58°56' E 011°10'0 0.0
2016-Feb-07 21:33N 58°56' E 011°10'0 0.0
2016-Feb-07 20:33N 58°56' E 011°10'0 0.0
2016-Feb-07 19:33N 58°56' E 011°10'0 0.0
2016-Feb-07 18:33N 58°56' E 011°10'0 0.0
2016-Feb-07 17:33N 58°56' E 011°10'0 0.0
2016-Feb-07 16:33N 58°56' E 011°10'0 0.0
2016-Feb-07 15:33N 58°56' E 011°10'0 0.0
2016-Feb-07 14:33N 58°56' E 011°10'0 0.0
2016-Feb-07 13:33N 58°56' E 011°10'0 0.0
2016-Feb-07 12:33N 58°56' E 011°10'0 0.0
2016-Feb-07 11:33N 58°56' E 011°10'0 0.0
2016-Feb-07 10:33N 58°56' E 011°10'0 0.0
2016-Feb-07 09:33N 58°56' E 011°10'0 0.0
2016-Feb-07 08:33N 58°56' E 011°10'0 0.0
2016-Feb-07 07:33N 58°56' E 011°10'0 0.0
2016-Feb-07 06:33N 58°56' E 011°10'0 0.0
2016-Feb-07 05:33N 58°56' E 011°10'0 0.0
2016-Feb-07 04:33N 58°56' E 011°10'0 0.0
2016-Feb-07 03:33N 58°56' E 011°10'0 0.0
2016-Feb-07 02:33N 58°56' E 011°10'0 0.0
2016-Feb-07 01:33N 58°56' E 011°10'0 0.0
2016-Feb-07 00:33N 58°56' E 011°10'0 0.0
2016-Feb-06 23:33N 58°56' E 011°10'0 0.0
2016-Feb-06 22:33N 58°56' E 011°10'0 0.0
2016-Feb-06 21:33N 58°56' E 011°10'0 0.0
2016-Feb-06 20:33N 58°56' E 011°10'0 0.0
2016-Feb-06 19:33N 58°56' E 011°10'0 0.0
2016-Feb-06 18:33N 58°56' E 011°10'0 0.0
2016-Feb-06 17:33N 58°56' E 011°10'0 0.0
2016-Feb-06 16:33N 58°56' E 011°10'0 0.0
2016-Feb-06 15:33N 58°56' E 011°10'0 0.0
2016-Feb-06 14:33N 58°56' E 011°10'0 0.0
2016-Feb-06 13:33N 58°56' E 011°10'0 0.0
2016-Feb-06 12:33N 58°56' E 011°10'0 0.0
2016-Feb-06 11:33N 58°56' E 011°10'0 0.0
2016-Feb-06 10:33N 58°56' E 011°10'0 0.0
2016-Feb-06 09:33N 58°56' E 011°10'0 0.0
2016-Feb-06 08:33N 58°56' E 011°10'0 0.0
2016-Feb-06 07:33N 58°56' E 011°10'0 0.0
2016-Feb-06 06:33N 58°56' E 011°10'0 0.0
2016-Feb-06 05:33N 58°56' E 011°10'0 0.0
2016-Feb-06 04:33N 58°56' E 011°10'0 0.0
2016-Feb-06 03:33N 58°56' E 011°10'0 0.0
2016-Feb-06 02:33N 58°56' E 011°10'0 0.0
2016-Feb-06 01:33N 58°56' E 011°10'0 0.0
2016-Feb-06 00:33N 58°56' E 011°10'0 0.0
2016-Feb-05 23:33N 58°56' E 011°10'0 0.0
2016-Feb-05 22:33N 58°56' E 011°10'0 0.0
2016-Feb-05 21:33N 58°56' E 011°10'0 0.0
2016-Feb-05 20:33N 58°56' E 011°10'0 0.0
2016-Feb-05 19:33N 58°56' E 011°10'0 0.0
2016-Feb-05 18:33N 58°56' E 011°10'0 0.0
2016-Feb-05 17:33N 58°56' E 011°10'0 0.0
2016-Feb-05 16:33N 58°56' E 011°10'0 0.0
2016-Feb-05 15:33N 58°56' E 011°10'0 0.0
2016-Feb-05 14:33N 58°56' E 011°10'0 0.0
2016-Feb-05 13:33N 58°56' E 011°10'0 0.0
2016-Feb-05 12:33N 58°56' E 011°10'0 0.0
2016-Feb-05 11:33N 58°56' E 011°10'0 0.0
2016-Feb-05 10:33N 58°56' E 011°10'0 0.0
2016-Feb-05 09:33N 58°56' E 011°10'0 0.0
2016-Feb-05 08:33N 58°56' E 011°10'0 0.0
2016-Feb-05 07:33N 58°56' E 011°10'0 0.0
2016-Feb-05 06:33N 58°56' E 011°10'0 0.0
2016-Feb-05 05:33N 58°56' E 011°10'0 0.0
2016-Feb-05 04:33N 58°56' E 011°10'0 0.0
2016-Feb-05 03:33N 58°56' E 011°10'0 0.0
2016-Feb-05 02:33N 58°56' E 011°10'0 0.0
2016-Feb-05 01:33N 58°56' E 011°10'0 0.0
2016-Feb-05 00:33N 58°56' E 011°10'0 0.0
2016-Feb-04 23:33N 58°56' E 011°10'0 0.0
2016-Feb-04 22:33N 58°56' E 011°10'0 0.0
2016-Feb-04 21:32N 58°56' E 011°10'0 0.0
2016-Feb-04 20:33N 58°56' E 011°10'0 0.0
2016-Feb-04 19:32N 58°56' E 011°10'0 0.5
2016-Feb-04 18:33N 58°56' E 011°10'0 0.4
2016-Feb-04 17:31N 58°56' E 011°10'0 0.1
2016-Feb-04 16:32N 58°56' E 011°10'7 7.2
2016-Feb-04 15:31N 58°55' E 010°56'7 7.3
2016-Feb-04 14:33N 58°51' E 010°44'8 7.5
2016-Feb-04 13:25N 58°48' E 010°29'4 4.8
2016-Feb-04 12:33N 58°46' E 010°22'7 7.0
2016-Feb-04 11:33N 58°44' E 010°09'3 3.4
2016-Feb-04 10:33N 58°44' E 010°03'1 1.3
2016-Feb-04 09:33N 58°43' E 010°05'1 1.5
2016-Feb-04 08:33N 58°43' E 010°07'1 1.4
2016-Feb-04 07:33N 58°42' E 010°10'2 1.6
2016-Feb-04 06:33N 58°42' E 010°13'2 1.5
2016-Feb-04 05:33N 58°40' E 010°14'1 1.2
2016-Feb-04 04:33N 58°40' E 010°12'1 1.4
2016-Feb-04 03:33N 58°38' E 010°12'1 1.3
2016-Feb-04 02:31N 58°37' E 010°11'1 1.3
2016-Feb-04 01:25N 58°36' E 010°10'1 1.3
2016-Feb-04 00:33N 58°35' E 010°09'1 1.5
2016-Feb-03 23:33N 58°35' E 010°07'6 5.9
2016-Feb-03 22:33N 58°41' E 010°04'4 3.6
2016-Feb-03 21:33N 58°44' E 010°03'1 0.8
2016-Feb-03 20:33N 58°44' E 010°04'2 1.6
2016-Feb-03 19:34N 58°43' E 010°07'2 1.6
2016-Feb-03 18:33N 58°42' E 010°10'2 1.7
2016-Feb-03 17:33N 58°42' E 010°13'1 1.5
2016-Feb-03 16:33N 58°40' E 010°14'1 1.1
2016-Feb-03 15:33N 58°40' E 010°12'1 1.4
2016-Feb-03 14:33N 58°38' E 010°12'1 1.2
2016-Feb-03 13:33N 58°37' E 010°11'1 1.3
2016-Feb-03 12:33N 58°36' E 010°10'1 0.9
2016-Feb-03 11:33N 58°35' E 010°10'8 7.7
2016-Feb-03 10:33N 58°40' E 010°20'7 7.4
2016-Feb-03 09:33N 58°46' E 010°30'11 7.3
2016-Feb-03 08:03N 58°52' E 010°48'4 8.0
2016-Feb-03 07:30N 58°54' E 010°55'8 1.1
2016-Feb-03 00:11N 58°56' E 011°10'0 0.0
2016-Feb-02 23:33N 58°56' E 011°10'0 0.0
2016-Feb-02 22:33N 58°56' E 011°10'0 0.0
2016-Feb-02 21:33N 58°56' E 011°10'0 0.0
2016-Feb-02 20:33N 58°56' E 011°10'0 0.0
2016-Feb-02 19:33N 58°56' E 011°10'0 0.0
2016-Feb-02 18:33N 58°56' E 011°10'0 0.0
2016-Feb-02 17:33N 58°56' E 011°10'0 0.0
2016-Feb-02 16:33N 58°56' E 011°10'0 0.0
2016-Feb-02 15:33N 58°56' E 011°10'0 0.0
2016-Feb-02 14:33N 58°56' E 011°10'0 0.0
2016-Feb-02 13:33N 58°56' E 011°10'0 0.0
2016-Feb-02 12:33N 58°56' E 011°10'0 0.0
2016-Feb-02 11:33N 58°56' E 011°10'0 0.0
2016-Feb-02 10:33N 58°56' E 011°10'0 0.0
2016-Feb-02 09:33N 58°56' E 011°10'0 0.0
2016-Feb-02 08:33N 58°56' E 011°10'0 0.0
2016-Feb-02 07:33N 58°56' E 011°10'0 0.0
2016-Feb-02 06:33N 58°56' E 011°10'0 0.0
2016-Feb-02 05:33N 58°56' E 011°10'0 0.0
2016-Feb-02 04:33N 58°56' E 011°10'0 0.0
2016-Feb-02 03:33N 58°56' E 011°10'0 0.0
2016-Feb-02 02:33N 58°56' E 011°10'0 0.0
2016-Feb-02 01:33N 58°56' E 011°10'0 0.0
2016-Feb-02 00:33N 58°56' E 011°10'0 0.0
2016-Feb-01 23:33N 58°56' E 011°10'0 0.0
2016-Feb-01 22:33N 58°56' E 011°10'0 0.0
2016-Feb-01 21:33N 58°56' E 011°10'0 0.0
2016-Feb-01 20:05N 58°56' E 011°10'  
Track history (hours):
 
Tides and Currents Weather Stations Pressure Air Temp Water Temp Dewpoint Dewpoint Depression Visibility Wind Speed Wind Dir Waves Ship Positions

Sd416 Nippon

Last reported at 2016-Feb-11 14:33 UTC. Time now 2016-Feb-11 15:09 UTC.
Position N 58°56' E 011°10'.

Length 17 m; draft 2.5 m.

Type: Fishing. MMSI: 266163000.

Date/timePositionNaut miles runAvg speedWind from/ knotsBaromVisibWave heightAir tempDewpointWater temp
2016-Feb-11 14:33N 58°56' E 011°10'0 0.0
2016-Feb-11 13:33N 58°56' E 011°10'0 0.0
2016-Feb-11 12:33N 58°56' E 011°10'0 0.0
2016-Feb-11 11:33N 58°56' E 011°10'0 0.0
2016-Feb-11 10:33N 58°56' E 011°10'0 0.0
2016-Feb-11 09:33N 58°56' E 011°10'0 0.0
2016-Feb-11 08:33N 58°56' E 011°10'0 0.0
2016-Feb-11 07:33N 58°56' E 011°10'0 0.0
2016-Feb-11 06:33N 58°56' E 011°10'28 2.0
2016-Feb-10 16:20N 58°47' E 010°20'5 5.9
2016-Feb-10 15:33N 58°46' E 010°11'7 7.0
2016-Feb-10 14:33N 58°43' E 009°58'3 3.0
2016-Feb-10 13:33N 58°43' E 009°53'2 1.5
2016-Feb-10 12:33N 58°42' E 009°55'1 1.5
2016-Feb-10 11:33N 58°43' E 009°57'2 1.7
2016-Feb-10 10:33N 58°45' E 009°58'3 3.3
2016-Feb-10 09:33N 58°45' E 010°05'1 1.3
2016-Feb-10 08:33N 58°44' E 010°07'1 1.5
2016-Feb-10 07:33N 58°43' E 010°09'2 1.6
2016-Feb-10 06:33N 58°43' E 010°12'2 1.4
2016-Feb-10 05:20N 58°42' E 010°15'1 1.3
2016-Feb-10 04:33N 58°41' E 010°15'1 1.1
2016-Feb-10 03:33N 58°40' E 010°13'1 1.2
2016-Feb-10 02:33N 58°39' E 010°12'1 1.2
2016-Feb-10 01:32N 58°38' E 010°11'3 0.9
2016-Feb-09 22:33N 58°36' E 010°07'6 6.5
2016-Feb-09 21:33N 58°42' E 010°03'3 2.6
2016-Feb-09 20:33N 58°45' E 010°03'1 1.0
2016-Feb-09 19:33N 58°44' E 010°04'2 1.5
2016-Feb-09 18:33N 58°44' E 010°06'3 1.4
2016-Feb-09 16:20N 58°42' E 010°12'1 1.6
2016-Feb-09 15:33N 58°41' E 010°14'1 1.1
2016-Feb-09 14:33N 58°40' E 010°14'1 1.1
2016-Feb-09 13:34N 58°39' E 010°12'1 1.4
2016-Feb-09 12:33N 58°38' E 010°12'1 1.3
2016-Feb-09 11:33N 58°37' E 010°11'1 1.3
2016-Feb-09 10:33N 58°36' E 010°10'1 1.0
2016-Feb-09 09:33N 58°35' E 010°12'7 7.0
2016-Feb-09 08:33N 58°40' E 010°23'30 3.7
2016-Feb-09 00:32N 58°56' E 011°10'0 0.0
2016-Feb-08 23:33N 58°56' E 011°10'0 0.0
2016-Feb-08 22:33N 58°56' E 011°10'0 0.0
2016-Feb-08 21:33N 58°56' E 011°10'0 0.0
2016-Feb-08 20:33N 58°56' E 011°10'0 0.0
2016-Feb-08 19:33N 58°56' E 011°10'0 0.0
2016-Feb-08 18:33N 58°56' E 011°10'0 0.0
2016-Feb-08 17:33N 58°56' E 011°10'0 0.0
2016-Feb-08 16:33N 58°56' E 011°10'0 0.0
2016-Feb-08 15:33N 58°56' E 011°10'0 0.0
2016-Feb-08 14:33N 58°56' E 011°10'0 0.0
2016-Feb-08 13:33N 58°56' E 011°10'0 0.0
2016-Feb-08 12:33N 58°56' E 011°10'0 0.0
2016-Feb-08 11:33N 58°56' E 011°10'0 0.0
2016-Feb-08 10:33N 58°56' E 011°10'0 0.0
2016-Feb-08 09:33N 58°56' E 011°10'0 0.0
2016-Feb-08 08:33N 58°56' E 011°10'0 0.0
2016-Feb-08 07:33N 58°56' E 011°10'0 0.0
2016-Feb-08 06:33N 58°56' E 011°10'0 0.0
2016-Feb-08 05:33N 58°56' E 011°10'0 0.0
2016-Feb-08 04:33N 58°56' E 011°10'0 0.0
2016-Feb-08 03:33N 58°56' E 011°10'0 0.0
2016-Feb-08 02:33N 58°56' E 011°10'0 0.0
2016-Feb-08 01:33N 58°56' E 011°10'0 0.0
2016-Feb-08 00:33N 58°56' E 011°10'0 0.0
2016-Feb-07 23:33N 58°56' E 011°10'0 0.0
2016-Feb-07 22:33N 58°56' E 011°10'0 0.0
2016-Feb-07 21:33N 58°56' E 011°10'0 0.0
2016-Feb-07 20:33N 58°56' E 011°10'0 0.0
2016-Feb-07 19:33N 58°56' E 011°10'0 0.0
2016-Feb-07 18:33N 58°56' E 011°10'0 0.0
2016-Feb-07 17:33N 58°56' E 011°10'0 0.0
2016-Feb-07 16:33N 58°56' E 011°10'0 0.0
2016-Feb-07 15:33N 58°56' E 011°10'0 0.0
2016-Feb-07 14:33N 58°56' E 011°10'0 0.0
2016-Feb-07 13:33N 58°56' E 011°10'0 0.0
2016-Feb-07 12:33N 58°56' E 011°10'0 0.0
2016-Feb-07 11:33N 58°56' E 011°10'0 0.0
2016-Feb-07 10:33N 58°56' E 011°10'0 0.0
2016-Feb-07 09:33N 58°56' E 011°10'0 0.0
2016-Feb-07 08:33N 58°56' E 011°10'0 0.0
2016-Feb-07 07:33N 58°56' E 011°10'0 0.0
2016-Feb-07 06:33N 58°56' E 011°10'0 0.0
2016-Feb-07 05:33N 58°56' E 011°10'0 0.0
2016-Feb-07 04:33N 58°56' E 011°10'0 0.0
2016-Feb-07 03:33N 58°56' E 011°10'0 0.0
2016-Feb-07 02:33N 58°56' E 011°10'0 0.0
2016-Feb-07 01:33N 58°56' E 011°10'0 0.0
2016-Feb-07 00:33N 58°56' E 011°10'0 0.0
2016-Feb-06 23:33N 58°56' E 011°10'0 0.0
2016-Feb-06 22:33N 58°56' E 011°10'0 0.0
2016-Feb-06 21:33N 58°56' E 011°10'0 0.0
2016-Feb-06 20:33N 58°56' E 011°10'0 0.0
2016-Feb-06 19:33N 58°56' E 011°10'0 0.0
2016-Feb-06 18:33N 58°56' E 011°10'0 0.0
2016-Feb-06 17:33N 58°56' E 011°10'0 0.0
2016-Feb-06 16:33N 58°56' E 011°10'0 0.0
2016-Feb-06 15:33N 58°56' E 011°10'0 0.0
2016-Feb-06 14:33N 58°56' E 011°10'0 0.0
2016-Feb-06 13:33N 58°56' E 011°10'0 0.0
2016-Feb-06 12:33N 58°56' E 011°10'0 0.0
2016-Feb-06 11:33N 58°56' E 011°10'0 0.0
2016-Feb-06 10:33N 58°56' E 011°10'0 0.0
2016-Feb-06 09:33N 58°56' E 011°10'0 0.0
2016-Feb-06 08:33N 58°56' E 011°10'0 0.0
2016-Feb-06 07:33N 58°56' E 011°10'0 0.0
2016-Feb-06 06:33N 58°56' E 011°10'0 0.0
2016-Feb-06 05:33N 58°56' E 011°10'0 0.0
2016-Feb-06 04:33N 58°56' E 011°10'0 0.0
2016-Feb-06 03:33N 58°56' E 011°10'0 0.0
2016-Feb-06 02:33N 58°56' E 011°10'0 0.0
2016-Feb-06 01:33N 58°56' E 011°10'0 0.0
2016-Feb-06 00:33N 58°56' E 011°10'0 0.0
2016-Feb-05 23:33N 58°56' E 011°10'0 0.0
2016-Feb-05 22:33N 58°56' E 011°10'0 0.0
2016-Feb-05 21:33N 58°56' E 011°10'0 0.0
2016-Feb-05 20:33N 58°56' E 011°10'0 0.0
2016-Feb-05 19:33N 58°56' E 011°10'0 0.0
2016-Feb-05 18:33N 58°56' E 011°10'0 0.0
2016-Feb-05 17:33N 58°56' E 011°10'0 0.0
2016-Feb-05 16:33N 58°56' E 011°10'0 0.0
2016-Feb-05 15:33N 58°56' E 011°10'0 0.0
2016-Feb-05 14:33N 58°56' E 011°10'0 0.0
2016-Feb-05 13:33N 58°56' E 011°10'0 0.0
2016-Feb-05 12:33N 58°56' E 011°10'0 0.0
2016-Feb-05 11:33N 58°56' E 011°10'0 0.0
2016-Feb-05 10:33N 58°56' E 011°10'0 0.0
2016-Feb-05 09:33N 58°56' E 011°10'0 0.0
2016-Feb-05 08:33N 58°56' E 011°10'0 0.0
2016-Feb-05 07:33N 58°56' E 011°10'0 0.0
2016-Feb-05 06:33N 58°56' E 011°10'0 0.0
2016-Feb-05 05:33N 58°56' E 011°10'0 0.0
2016-Feb-05 04:33N 58°56' E 011°10'0 0.0
2016-Feb-05 03:33N 58°56' E 011°10'0 0.0
2016-Feb-05 02:33N 58°56' E 011°10'0 0.0
2016-Feb-05 01:33N 58°56' E 011°10'0 0.0
2016-Feb-05 00:33N 58°56' E 011°10'0 0.0
2016-Feb-04 23:33N 58°56' E 011°10'0 0.0
2016-Feb-04 22:33N 58°56' E 011°10'0 0.0
2016-Feb-04 21:32N 58°56' E 011°10'0 0.0
2016-Feb-04 20:33N 58°56' E 011°10'0 0.0
2016-Feb-04 19:32N 58°56' E 011°10'0 0.5
2016-Feb-04 18:33N 58°56' E 011°10'0 0.4
2016-Feb-04 17:31N 58°56' E 011°10'0 0.1
2016-Feb-04 16:32N 58°56' E 011°10'7 7.2
2016-Feb-04 15:31N 58°55' E 010°56'7 7.3
2016-Feb-04 14:33N 58°51' E 010°44'8 7.5
2016-Feb-04 13:25N 58°48' E 010°29'4 4.8
2016-Feb-04 12:33N 58°46' E 010°22'7 7.0
2016-Feb-04 11:33N 58°44' E 010°09'3 3.4
2016-Feb-04 10:33N 58°44' E 010°03'1 1.3
2016-Feb-04 09:33N 58°43' E 010°05'1 1.5
2016-Feb-04 08:33N 58°43' E 010°07'1 1.4
2016-Feb-04 07:33N 58°42' E 010°10'2 1.6
2016-Feb-04 06:33N 58°42' E 010°13'2 1.5
2016-Feb-04 05:33N 58°40' E 010°14'1 1.2
2016-Feb-04 04:33N 58°40' E 010°12'1 1.4
2016-Feb-04 03:33N 58°38' E 010°12'1 1.3
2016-Feb-04 02:31N 58°37' E 010°11'1 1.3
2016-Feb-04 01:25N 58°36' E 010°10'1 1.3
2016-Feb-04 00:33N 58°35' E 010°09'1 1.5
2016-Feb-03 23:33N 58°35' E 010°07'6 5.9
2016-Feb-03 22:33N 58°41' E 010°04'4 3.6
2016-Feb-03 21:33N 58°44' E 010°03'1 0.8
2016-Feb-03 20:33N 58°44' E 010°04'2 1.6
2016-Feb-03 19:34N 58°43' E 010°07'2 1.6
2016-Feb-03 18:33N 58°42' E 010°10'2 1.7
2016-Feb-03 17:33N 58°42' E 010°13'1 1.5
2016-Feb-03 16:33N 58°40' E 010°14'1 1.1
2016-Feb-03 15:33N 58°40' E 010°12'1 1.4
2016-Feb-03 14:33N 58°38' E 010°12'1 1.2
2016-Feb-03 13:33N 58°37' E 010°11'1 1.3
2016-Feb-03 12:33N 58°36' E 010°10'1 0.9
2016-Feb-03 11:33N 58°35' E 010°10'8 7.7
2016-Feb-03 10:33N 58°40' E 010°20'7 7.4
2016-Feb-03 09:33N 58°46' E 010°30'11 7.3
2016-Feb-03 08:03N 58°52' E 010°48'4 8.0
2016-Feb-03 07:30N 58°54' E 010°55'8 1.1
2016-Feb-03 00:11N 58°56' E 011°10'0 0.0
2016-Feb-02 23:33N 58°56' E 011°10'0 0.0
2016-Feb-02 22:33N 58°56' E 011°10'0 0.0
2016-Feb-02 21:33N 58°56' E 011°10'0 0.0
2016-Feb-02 20:33N 58°56' E 011°10'0 0.0
2016-Feb-02 19:33N 58°56' E 011°10'0 0.0
2016-Feb-02 18:33N 58°56' E 011°10'0 0.0
2016-Feb-02 17:33N 58°56' E 011°10'0 0.0
2016-Feb-02 16:33N 58°56' E 011°10'0 0.0
2016-Feb-02 15:33N 58°56' E 011°10'0 0.0
2016-Feb-02 14:33N 58°56' E 011°10'0 0.0
2016-Feb-02 13:33N 58°56' E 011°10'0 0.0
2016-Feb-02 12:33N 58°56' E 011°10'0 0.0
2016-Feb-02 11:33N 58°56' E 011°10'0 0.0
2016-Feb-02 10:33N 58°56' E 011°10'0 0.0
2016-Feb-02 09:33N 58°56' E 011°10'0 0.0
2016-Feb-02 08:33N 58°56' E 011°10'0 0.0
2016-Feb-02 07:33N 58°56' E 011°10'0 0.0
2016-Feb-02 06:33N 58°56' E 011°10'0 0.0
2016-Feb-02 05:33N 58°56' E 011°10'0 0.0
2016-Feb-02 04:33N 58°56' E 011°10'0 0.0
2016-Feb-02 03:33N 58°56' E 011°10'0 0.0
2016-Feb-02 02:33N 58°56' E 011°10'0 0.0
2016-Feb-02 01:33N 58°56' E 011°10'0 0.0
2016-Feb-02 00:33N 58°56' E 011°10'0 0.0
2016-Feb-01 23:33N 58°56' E 011°10'0 0.0
2016-Feb-01 22:33N 58°56' E 011°10'0 0.0
2016-Feb-01 21:33N 58°56' E 011°10'0 0.0
2016-Feb-01 20:05N 58°56' E 011°10'  

Dump ship's entire track history